KAWO/AWO METAR and TAF weather

Enter ICAO airport designator
Station Type Date Time Source
KAWO METAR 2020/10/20 18:11 UTC NOAA

KAWO 201811Z AUTO 15004KT 10SM SCT010 BKN047 11/09 A3022 RMK AO2


Station Type Date Time Source
KAWO Decoded METAR 2020/10/20 18:11 UTC NOAA

Arlington Municipal, WA, United States (KAWO) 48-10N 122-10W
Oct 20, 2020 - 02:11 PM EDT / 2020.10.20 1811 UTC
Wind: from the SSE (150 degrees) at 5 MPH (4 KT):0
Visibility: 10 mile(s):0
Sky conditions: mostly cloudy
Temperature: 51 F (11 C)
Dew Point: 48 F (9 C)
Relative Humidity: 87%
Pressure (altimeter): 30.22 in. Hg (1023 hPa)
ob: KAWO 201811Z AUTO 15004KT 10SM SCT010 BKN047 11/09 A3022 RMK AO2
cycle: 18

Station Type Date Time Source
KAWO TAF UTC NOAA

Error!

Example: see airport list